Time;durP1;ratioP1;P1;durP2;ratioP2;P2;SDS_P1;SDS_P2;PMS_P1;PMS_P2;Temp;Humidity;BMP_temperature;BMP_pressure;BME280_temperature;BME280_humidity;BME280_pressure;Samples;Min_cycle;Max_cycle;Signal;HPM_P1;HPM_P2
2023/03/30 00:02:02;;;;;;;;;;;;;;;-4.50;95.46;101196.69;5132980;27;19916;-65
2023/03/30 00:04:28;;;;;;;;;;;;;;;-4.51;95.39;101195.00;5132803;28;19915;-66
2023/03/30 00:06:53;;;;;;;;;;;;;;;-4.53;96.34;101197.66;5133130;27;19912;-66
2023/03/30 00:09:18;;;;;;;;;;;;;;;-4.51;96.34;101208.00;5133231;28;19915;-67
2023/03/30 00:11:44;;;;;;;;;;;;;;;-4.52;96.78;101211.50;5114599;28;19959;-66
2023/03/30 00:14:10;;;;;;;;;;;;;;;-4.57;96.59;101210.84;5135032;27;19911;-66
2023/03/30 00:16:36;;;;;;;;;;;;;;;-4.59;96.66;101217.84;5137095;27;19911;-66
2023/03/30 00:19:01;;;;;;;;;;;;;;;-4.59;97.07;101207.44;5137304;27;19922;-65
2023/03/30 00:21:27;;;;;;;;;;;;;;;-4.62;97.10;101207.56;5137250;27;19915;-66
2023/03/30 00:23:56;;;;;;;;;;;;;;;-4.62;97.42;101216.19;5137122;27;19915;-66
2023/03/30 00:26:21;;;;;;;;;;;;;;;-4.63;97.75;101217.06;5137114;27;19915;-66
2023/03/30 00:28:46;;;;;;;;;;;;;;;-4.64;97.61;101222.31;5137164;27;20442;-66
2023/03/30 00:31:12;;;;;;;;;;;;;;;-4.67;97.77;101225.88;5136662;27;20045;-64
2023/03/30 00:33:37;;;;;;;;;;;;;;;-4.76;98.26;101221.03;5137273;27;19923;-66
2023/03/30 00:36:03;;;;;;;;;;;;;;;-4.81;98.30;101229.00;5136894;27;19923;-65
2023/03/30 00:38:28;;;;;;;;;;;;;;;-4.82;98.58;101222.09;5136787;27;19918;-66
2023/03/30 00:40:55;;;;;;;;;;;;;;;-4.83;98.98;101233.38;5136913;27;19923;-66
2023/03/30 00:43:20;;;;;;;;;;;;;;;-4.85;97.98;101231.75;5136419;27;20310;-66
2023/03/30 00:45:46;;;;;;;;;;;;;;;-4.89;98.85;101240.56;5136639;27;20017;-66
2023/03/30 00:48:14;;;;;;;;;;;;;;;-4.93;99.04;101244.97;5136824;27;19952;-66
2023/03/30 00:50:42;;;;;;;;;;;;;;;-4.90;98.99;101236.25;5136468;27;19911;-66
2023/03/30 00:53:10;;;;;;;;;;;;;;;-4.97;99.37;101242.53;5118110;27;19912;-65
2023/03/30 00:55:37;;;;;;;;;;;;;;;-5.01;99.45;101242.66;5136304;27;19912;-65
2023/03/30 00:58:03;;;;;;;;;;;;;;;-5.03;99.41;101244.47;5136226;27;20380;-66
2023/03/30 01:00:28;;;;;;;;;;;;;;;-5.08;99.63;101243.78;5136081;27;19998;-67
2023/03/30 01:02:57;;;;;;;;;;;;;;;-5.07;100.00;101245.47;5136249;27;19915;-66
2023/03/30 01:05:23;;;;;;;;;;;;;;;-5.08;99.84;101245.50;5136460;27;20335;-67
2023/03/30 01:07:49;;;;;;;;;;;;;;;-5.11;100.00;101250.81;5136496;27;19911;-66
2023/03/30 01:10:15;;;;;;;;;;;;;;;-5.08;100.00;101254.16;5136281;27;20075;-65
2023/03/30 01:12:40;;;;;;;;;;;;;;;-5.05;100.00;101250.59;5135902;27;20010;-64
2023/03/30 01:15:07;;;;;;;;;;;;;;;-5.03;99.18;101254.00;5136104;27;20270;-65
2023/03/30 01:17:46;;;;;;;;;;;;;;;-5.03;99.68;101248.81;5136114;27;19923;-67
2023/03/30 01:20:14;;;;;;;;;;;;;;;-5.11;99.40;101248.22;5136014;27;20370;-67
2023/03/30 01:22:45;;;;;;;;;;;;;;;-5.15;99.50;101251.81;5136297;27;19912;-65
2023/03/30 01:25:25;;;;;;;;;;;;;;;-5.14;99.98;101256.97;5134858;27;19925;-66
2023/03/30 01:27:59;;;;;;;;;;;;;;;-5.13;100.00;101258.66;5136218;27;19912;-65
2023/03/30 01:30:51;;;;;;;;;;;;;;;-5.10;99.50;101252.50;5135746;27;20053;-66
2023/03/30 01:33:35;;;;;;;;;;;;;;;-5.10;99.72;101255.13;5104000;27;19919;-65
2023/03/30 01:36:13;;;;;;;;;;;;;;;-5.13;99.16;101256.06;5135576;27;20326;-66
2023/03/30 01:38:59;;;;;;;;;;;;;;;-5.15;99.68;101259.63;5135764;27;19912;-65
2023/03/30 01:41:33;;;;;;;;;;;;;;;-5.20;99.35;101270.16;5092972;27;20365;-64
2023/03/30 01:44:10;;;;;;;;;;;;;;;-5.22;100.00;101263.28;5135484;27;19915;-65
2023/03/30 01:46:39;;;;;;;;;;;;;;;-5.21;99.90;101270.19;5135511;27;19915;-66
2023/03/30 01:49:14;;;;;;;;;;;;;;;-5.22;100.00;101278.88;5135424;27;19919;-65
2023/03/30 01:51:41;;;;;;;;;;;;;;;-5.22;99.68;101276.28;5135364;27;19918;-65
2023/03/30 01:54:09;;;;;;;;;;;;;;;-5.22;100.00;101276.28;5135172;27;19917;-66
2023/03/30 01:56:38;;;;;;;;;;;;;;;-5.25;100.00;101281.56;5135042;27;20783;-66
2023/03/30 01:59:07;;;;;;;;;;;;;;;-5.22;100.00;101284.06;5135220;27;19964;-67
2023/03/30 02:01:35;;;;;;;;;;;;;;;-5.21;99.99;101283.16;5135344;27;19916;-65
2023/03/30 02:04:03;;;;;;;;;;;;;;;-5.26;99.94;101278.13;5116782;27;20410;-64
2023/03/30 02:06:37;;;;;;;;;;;;;;;-5.35;99.91;101278.44;5116679;27;19918;-66
2023/03/30 02:09:04;;;;;;;;;;;;;;;-5.35;100.00;101276.69;5134767;27;19918;-66
2023/03/30 02:11:30;;;;;;;;;;;;;;;-5.32;100.00;101283.53;5134996;27;20046;-66
2023/03/30 02:13:57;;;;;;;;;;;;;;;-5.31;100.00;101280.03;5135122;27;19946;-65
2023/03/30 02:16:45;;;;;;;;;;;;;;;-5.30;100.00;101279.13;5134969;27;19923;-66
2023/03/30 02:19:10;;;;;;;;;;;;;;;-5.31;99.91;101280.88;5134769;27;19912;-65
2023/03/30 02:21:36;;;;;;;;;;;;;;;-5.30;99.80;101287.75;5134836;27;19956;-66
2023/03/30 02:24:02;;;;;;;;;;;;;;;-5.30;99.66;101282.56;5135134;27;20346;-65
2023/03/30 02:26:28;;;;;;;;;;;;;;;-5.33;100.00;101287.00;5134814;27;19919;-65
2023/03/30 02:28:54;;;;;;;;;;;;;;;-5.36;99.99;101287.97;5134629;27;19936;-65
2023/03/30 02:31:20;;;;;;;;;;;;;;;-5.38;99.78;101292.34;5134552;27;19912;-65
2023/03/30 02:33:45;;;;;;;;;;;;;;;-5.41;100.00;101284.66;5134460;27;19916;-66
2023/03/30 02:36:30;;;;;;;;;;;;;;;-5.40;100.00;101281.19;5134505;27;20278;-66
2023/03/30 02:38:56;;;;;;;;;;;;;;;-5.38;99.79;101284.56;5134769;27;19911;-66
2023/03/30 02:41:30;;;;;;;;;;;;;;;-5.39;99.67;101287.22;5134503;27;20015;-65
2023/03/30 02:43:58;;;;;;;;;;;;;;;-5.39;100.00;101282.88;5134513;27;19962;-64
2023/03/30 02:46:26;;;;;;;;;;;;;;;-5.40;99.81;101291.56;5134200;27;19966;-65
2023/03/30 02:48:55;;;;;;;;;;;;;;;-5.40;99.94;101290.72;5134331;27;19912;-66
2023/03/30 02:51:39;;;;;;;;;;;;;;;-5.45;99.57;101290.84;5134476;27;19963;-66
2023/03/30 02:54:16;;;;;;;;;;;;;;;-5.56;99.85;101300.69;5134662;27;19958;-65
2023/03/30 02:56:46;;;;;;;;;;;;;;;-5.65;100.00;101290.63;5134104;27;19915;-66
2023/03/30 02:59:26;;;;;;;;;;;;;;;-5.74;99.35;101291.75;5134077;27;19959;-66
2023/03/30 03:01:57;;;;;;;;;;;;;;;-5.77;99.93;101296.19;5134142;27;19918;-65
2023/03/30 03:04:23;;;;;;;;;;;;;;;-5.74;100.00;101290.91;5134120;27;19915;-67
2023/03/30 03:06:51;;;;;;;;;;;;;;;-5.71;100.00;101288.22;5115520;27;19918;-66
2023/03/30 03:09:23;;;;;;;;;;;;;;;-5.70;100.00;101303.75;5133717;27;19915;-66
2023/03/30 03:11:49;;;;;;;;;;;;;;;-5.69;100.00;101299.41;5134053;27;19911;-66
2023/03/30 03:14:15;;;;;;;;;;;;;;;-5.70;100.00;101300.28;5133965;27;19911;-64
2023/03/30 03:16:40;;;;;;;;;;;;;;;-5.73;99.92;101300.38;5133900;27;20363;-65
2023/03/30 03:19:06;;;;;;;;;;;;;;;-5.72;100.00;101299.50;5133682;27;19911;-66
2023/03/30 03:21:32;;;;;;;;;;;;;;;-5.72;100.00;101304.69;5133659;27;19958;-65
2023/03/30 03:23:57;;;;;;;;;;;;;;;-5.77;100.00;101298.78;5133501;27;20370;-66
2023/03/30 03:26:22;;;;;;;;;;;;;;;-5.76;100.00;101308.28;5133681;27;19915;-66
2023/03/30 03:28:48;;;;;;;;;;;;;;;-5.78;100.00;101313.50;5115030;27;19933;-65
2023/03/30 03:31:13;;;;;;;;;;;;;;;-5.81;100.00;101315.31;5134093;27;19911;-65
2023/03/30 03:33:38;;;;;;;;;;;;;;;-5.87;100.00;101321.53;5134465;27;19911;-66
2023/03/30 03:36:04;;;;;;;;;;;;;;;-5.90;100.00;101320.81;5133589;27;19919;-67
2023/03/30 03:38:29;;;;;;;;;;;;;;;-5.89;100.00;101320.72;5133241;27;20092;-65
2023/03/30 03:40:56;;;;;;;;;;;;;;;-5.87;100.00;101321.53;5115009;27;19915;-66
2023/03/30 03:43:22;;;;;;;;;;;;;;;-5.87;100.00;101320.69;5133618;27;20139;-65
2023/03/30 03:45:48;;;;;;;;;;;;;;;-5.88;100.00;101317.25;5133583;27;20330;-65
2023/03/30 03:48:14;;;;;;;;;;;;;;;-5.81;100.00;101325.69;5132890;27;20367;-65
2023/03/30 03:50:40;;;;;;;;;;;;;;;-5.73;100.00;101323.75;5133125;27;19912;-64
2023/03/30 03:53:06;;;;;;;;;;;;;;;-5.63;100.00;101331.19;5133102;27;20418;-65
2023/03/30 03:55:34;;;;;;;;;;;;;;;-5.56;100.00;101329.25;5133660;28;20214;-66
2023/03/30 03:58:00;;;;;;;;;;;;;;;-5.58;100.00;101328.44;5133444;27;19912;-66
2023/03/30 04:00:25;;;;;;;;;;;;;;;-5.60;100.00;101332.84;5114860;28;20431;-67
2023/03/30 04:02:51;;;;;;;;;;;;;;;-5.59;100.00;101331.94;5132998;27;19934;-66
2023/03/30 04:05:16;;;;;;;;;;;;;;;-5.52;100.00;101341.22;5114491;28;19957;-69
2023/03/30 04:07:45;;;;;;;;;;;;;;;-5.48;100.00;101342.88;5132821;28;19972;-68
2023/03/30 04:10:10;;;;;;;;;;;;;;;-5.48;100.00;101349.81;5132859;28;19998;-65
2023/03/30 04:12:37;;;;;;;;;;;;;;;-5.44;100.00;101356.59;5132737;28;20006;-66
2023/03/30 04:15:03;;;;;;;;;;;;;;;-5.41;100.00;101356.50;5133508;27;20374;-66
2023/03/30 04:17:32;;;;;;;;;;;;;;;-5.39;100.00;101355.56;5133365;27;19917;-66
2023/03/30 04:19:57;;;;;;;;;;;;;;;-5.38;100.00;101362.44;5132961;27;19918;-65
2023/03/30 04:22:24;;;;;;;;;;;;;;;-5.36;100.00;101350.25;5132751;28;20011;-65
2023/03/30 04:24:58;;;;;;;;;;;;;;;-5.28;100.00;101357.81;5132664;28;19933;-66
2023/03/30 04:27:27;;;;;;;;;;;;;;;-5.18;100.00;101358.41;5132655;27;20314;-65
2023/03/30 04:29:56;;;;;;;;;;;;;;;-5.13;100.00;101357.34;5132726;27;19915;-65
2023/03/30 04:32:22;;;;;;;;;;;;;;;-5.06;99.36;101358.00;5132675;27;20347;-66
2023/03/30 04:34:47;;;;;;;;;;;;;;;-5.00;99.78;101362.97;5132822;27;19956;-66
2023/03/30 04:37:17;;;;;;;;;;;;;;;-4.97;99.19;101362.88;5132900;27;20258;-65
2023/03/30 04:39:42;;;;;;;;;;;;;;;-4.93;98.79;101359.28;5132749;27;19939;-69
2023/03/30 04:42:12;;;;;;;;;;;;;;;-4.88;98.47;101361.75;5114599;28;20319;-72
2023/03/30 04:44:38;;;;;;;;;;;;;;;-4.91;98.31;101360.13;5132671;28;20014;-65
2023/03/30 04:47:05;;;;;;;;;;;;;;;-4.83;97.79;101365.91;5132765;27;20056;-65
2023/03/30 04:49:30;;;;;;;;;;;;;;;-4.76;98.05;101363.94;5132575;28;19919;-65
2023/03/30 04:51:56;;;;;;;;;;;;;;;-4.70;97.55;101367.19;5132416;28;19934;-66
2023/03/30 04:54:21;;;;;;;;;;;;;;;-4.63;97.19;101364.38;5132569;28;19911;-65
2023/03/30 04:56:46;;;;;;;;;;;;;;;-4.56;97.23;101373.69;5132574;28;19954;-66
2023/03/30 04:59:12;;;;;;;;;;;;;;;-4.49;97.13;101367.38;5132546;28;19916;-67
2023/03/30 05:01:37;;;;;;;;;;;;;;;-4.46;96.35;101359.47;5116689;27;19911;-67
2023/03/30 05:04:02;;;;;;;;;;;;;;;-4.41;96.46;101368.78;5136093;27;19922;-66
2023/03/30 05:06:28;;;;;;;;;;;;;;;-4.38;96.18;101371.28;5136431;27;19915;-65
2023/03/30 05:08:54;;;;;;;;;;;;;;;-4.36;96.33;101371.22;5136449;27;19953;-66
2023/03/30 05:11:19;;;;;;;;;;;;;;;-4.40;96.40;101369.66;5136097;27;19918;-66
2023/03/30 05:13:44;;;;;;;;;;;;;;;-4.42;96.64;101366.25;5136158;27;20350;-66
2023/03/30 05:16:10;;;;;;;;;;;;;;;-4.44;96.87;101378.44;5117584;27;20362;-67
2023/03/30 05:18:37;;;;;;;;;;;;;;;-4.46;96.58;101377.66;5136114;27;19943;-67
2023/03/30 05:21:03;;;;;;;;;;;;;;;-4.55;94.72;101375.38;5136104;27;19922;-67
2023/03/30 05:23:28;;;;;;;;;;;;;;;-4.56;95.88;101373.69;5135774;27;20271;-66
2023/03/30 05:25:54;;;;;;;;;;;;;;;-4.69;94.75;101381.03;5135865;27;19918;-68
2023/03/30 05:28:21;;;;;;;;;;;;;;;-4.76;94.49;101371.72;5136329;27;20369;-66
2023/03/30 05:30:51;;;;;;;;;;;;;;;-4.71;95.70;101372.44;5136058;27;19954;-65
2023/03/30 05:33:16;;;;;;;;;;;;;;;-4.55;96.31;101370.19;5117302;27;19987;-64
2023/03/30 05:35:42;;;;;;;;;;;;;;;-4.46;96.28;101367.25;5136224;27;20269;-65
2023/03/30 05:38:07;;;;;;;;;;;;;;;-4.39;96.22;101376.53;5136409;27;19919;-66
2023/03/30 05:40:32;;;;;;;;;;;;;;;-4.36;95.64;101366.03;5135568;27;19923;-65
2023/03/30 05:42:58;;;;;;;;;;;;;;;-4.38;95.17;101363.47;5135457;27;20014;-65
2023/03/30 05:45:23;;;;;;;;;;;;;;;-4.30;95.15;101365.84;5135298;27;20255;-65
2023/03/30 05:47:48;;;;;;;;;;;;;;;-4.23;95.15;101367.31;5135504;27;19911;-66
2023/03/30 05:50:14;;;;;;;;;;;;;;;-4.16;93.85;101371.41;5135811;27;19957;-66
2023/03/30 05:52:40;;;;;;;;;;;;;;;-4.15;93.69;101367.03;5135584;27;19951;-65
2023/03/30 05:55:05;;;;;;;;;;;;;;;-4.13;94.00;101368.69;5143381;27;19955;-66
2023/03/30 05:57:32;;;;;;;;;;;;;;;-4.18;92.06;101365.41;5137980;27;19915;-69
2023/03/30 05:59:57;;;;;;;;;;;;;;;-4.20;93.13;101362.00;5156046;27;19911;-69
2023/03/30 06:02:23;;;;;;;;;;;;;;;-4.17;93.98;101366.25;5155933;27;19918;-67
2023/03/30 06:04:48;;;;;;;;;;;;;;;-4.08;93.80;101366.75;5156054;27;19915;-65
2023/03/30 06:07:14;;;;;;;;;;;;;;;-3.98;93.69;101371.66;5157333;27;19936;-65
2023/03/30 06:09:39;;;;;;;;;;;;;;;-4.04;91.22;101372.72;5138431;27;19918;-65
2023/03/30 06:12:04;;;;;;;;;;;;;;;-4.09;91.97;101374.63;5136269;27;20518;-67
2023/03/30 06:14:30;;;;;;;;;;;;;;;-4.11;91.24;101369.47;5136344;27;19919;-65
2023/03/30 06:16:55;;;;;;;;;;;;;;;-3.96;92.65;101364.63;5136650;27;19967;-66
2023/03/30 06:19:21;;;;;;;;;;;;;;;-3.87;92.23;101364.28;5135283;27;19988;-66
2023/03/30 06:21:46;;;;;;;;;;;;;;;-3.85;90.09;101371.13;5135240;27;19918;-65
2023/03/30 06:24:11;;;;;;;;;;;;;;;-3.90;88.92;101374.81;5099755;27;19921;-65
2023/03/30 06:26:37;;;;;;;;;;;;;;;-3.78;91.50;101379.56;5134987;27;20002;-67
2023/03/30 06:29:03;;;;;;;;;;;;;;;-3.73;90.14;101384.63;5134712;27;19922;-66
2023/03/30 06:31:28;;;;;;;;;;;;;;;-3.65;91.16;101385.19;5134590;27;19911;-65
2023/03/30 06:33:54;;;;;;;;;;;;;;;-3.62;90.49;101385.91;5134735;27;20362;-64
2023/03/30 06:36:19;;;;;;;;;;;;;;;-3.55;90.74;101389.13;5134740;27;19912;-66
2023/03/30 06:38:45;;;;;;;;;;;;;;;-3.46;91.45;101387.06;5134509;27;19912;-64
2023/03/30 06:41:11;;;;;;;;;;;;;;;-3.41;91.19;101389.47;5148001;27;19915;-66
2023/03/30 06:43:37;;;;;;;;;;;;;;;-3.34;91.04;101390.09;5155663;27;19915;-69
2023/03/30 06:46:03;;;;;;;;;;;;;;;-3.34;90.00;101383.13;5155706;27;19919;-65
2023/03/30 06:48:29;;;;;;;;;;;;;;;-3.35;89.85;101383.19;5154856;27;20289;-67
2023/03/30 06:50:54;;;;;;;;;;;;;;;-3.39;87.69;101382.44;5155078;27;19911;-66
2023/03/30 06:53:21;;;;;;;;;;;;;;;-3.30;89.83;101379.47;5154106;27;20006;-65
2023/03/30 06:55:51;;;;;;;;;;;;;;;-3.17;89.72;101380.72;5144033;27;19915;-68
2023/03/30 06:58:16;;;;;;;;;;;;;;;-3.10;88.89;101388.28;5145173;27;19914;-70
2023/03/30 07:00:41;;;;;;;;;;;;;;;-3.03;88.29;101385.38;5143894;27;19922;-68
2023/03/30 07:03:07;;;;;;;;;;;;;;;-3.06;86.70;101379.44;5127705;27;19962;-66
2023/03/30 07:05:33;;;;;;;;;;;;;;;-3.06;85.33;101380.28;5124725;27;19919;-66
2023/03/30 07:07:58;;;;;;;;;;;;;;;-3.13;84.70;101378.84;5145043;27;19911;-67
2023/03/30 07:10:23;;;;;;;;;;;;;;;-3.13;82.58;101384.91;5141093;27;19961;-66
2023/03/30 07:12:49;;;;;;;;;;;;;;;-3.18;84.74;101389.44;5143569;27;19911;-65
2023/03/30 07:15:14;;;;;;;;;;;;;;;-3.13;84.56;101395.31;5144836;27;19956;-65
2023/03/30 07:17:40;;;;;;;;;;;;;;;-3.06;85.24;101401.13;5145564;27;19918;-65
2023/03/30 07:20:07;;;;;;;;;;;;;;;-2.96;83.81;101402.44;5145214;27;19915;-67
2023/03/30 07:22:32;;;;;;;;;;;;;;;-2.94;84.57;101400.63;5144781;27;19919;-64
2023/03/30 07:24:57;;;;;;;;;;;;;;;-2.85;83.30;101405.50;5143797;27;19911;-67
2023/03/30 07:27:23;;;;;;;;;;;;;;;-2.77;83.16;101404.34;5141895;27;20307;-67
2023/03/30 07:29:49;;;;;;;;;;;;;;;-2.69;82.00;101410.06;5144263;27;19916;-66
2023/03/30 07:32:15;;;;;;;;;;;;;;;-2.66;81.53;101389.09;5142279;27;19918;-66
2023/03/30 07:34:41;;;;;;;;;;;;;;;-2.63;81.99;101402.84;5125458;27;20385;-66
2023/03/30 07:37:06;;;;;;;;;;;;;;;-2.66;81.07;101397.75;5143906;27;19912;-65
2023/03/30 07:39:32;;;;;;;;;;;;;;;-2.65;81.57;101403.81;5153588;27;19911;-65
2023/03/30 07:41:58;;;;;;;;;;;;;;;-2.60;81.05;101399.28;5154431;27;19923;-67
2023/03/30 07:44:28;;;;;;;;;;;;;;;-2.57;80.14;101407.00;5153332;27;20490;-66
2023/03/30 07:46:54;;;;;;;;;;;;;;;-2.53;80.76;101403.34;5154127;27;19915;-65
2023/03/30 07:49:20;;;;;;;;;;;;;;;-2.45;80.17;101406.47;5154218;27;19915;-66
2023/03/30 07:51:46;;;;;;;;;;;;;;;-2.39;80.29;101408.81;5154234;27;20022;-67
2023/03/30 07:54:11;;;;;;;;;;;;;;;-2.31;80.35;101411.97;5147431;27;20324;-68
2023/03/30 07:56:38;;;;;;;;;;;;;;;-2.35;78.12;101401.69;5144989;27;19964;-66
2023/03/30 07:59:04;;;;;;;;;;;;;;;-2.43;77.63;101409.84;5144754;27;20408;-67
2023/03/30 08:01:30;;;;;;;;;;;;;;;-2.34;79.08;101401.63;5142229;27;19915;-66
2023/03/30 08:03:55;;;;;;;;;;;;;;;-2.21;78.28;101401.97;5142899;27;19911;-67
2023/03/30 08:06:21;;;;;;;;;;;;;;;-2.14;78.48;101407.78;5102146;27;20340;-67
2023/03/30 08:08:46;;;;;;;;;;;;;;;-2.12;78.05;101395.50;5141855;27;19915;-70
2023/03/30 08:11:14;;;;;;;;;;;;;;;-2.06;78.51;101400.47;5114593;28;19922;-65
2023/03/30 08:13:39;;;;;;;;;;;;;;;-2.00;77.35;101405.44;5138499;27;19946;-64
2023/03/30 08:16:07;;;;;;;;;;;;;;;-1.89;78.15;101408.41;5143076;27;20432;-65
2023/03/30 08:18:33;;;;;;;;;;;;;;;-2.01;74.48;101408.97;5142223;27;19915;-67
2023/03/30 08:20:59;;;;;;;;;;;;;;;-1.97;76.59;101408.75;5139212;27;19919;-66
2023/03/30 08:23:24;;;;;;;;;;;;;;;-1.90;77.89;101412.78;5147849;27;19911;-65
2023/03/30 08:25:51;;;;;;;;;;;;;;;-1.76;78.10;101412.16;5142352;27;19911;-65
2023/03/30 08:28:17;;;;;;;;;;;;;;;-1.62;78.00;101407.19;5141102;27;19911;-67
2023/03/30 08:30:42;;;;;;;;;;;;;;;-1.57;77.83;101414.81;5142432;27;19934;-68
2023/03/30 08:33:08;;;;;;;;;;;;;;;-1.58;76.85;101413.13;5142566;27;19911;-65
2023/03/30 08:35:33;;;;;;;;;;;;;;;-1.61;76.52;101416.72;5146418;27;19923;-66
2023/03/30 08:37:59;;;;;;;;;;;;;;;-1.62;77.13;101417.63;5145611;27;19934;-65
2023/03/30 08:40:24;;;;;;;;;;;;;;;-1.55;78.34;101420.81;5147185;27;19961;-67
2023/03/30 08:43:02;;;;;;;;;;;;;;;-1.39;78.09;101420.97;5144741;27;20289;-66
2023/03/30 08:45:46;;;;;;;;;;;;;;;-1.31;77.94;101422.31;5140304;27;19919;-65
2023/03/30 08:48:22;;;;;;;;;;;;;;;-1.19;77.80;101415.66;5124912;27;19916;-66
2023/03/30 08:50:58;;;;;;;;;;;;;;;-1.21;77.49;101407.03;5146137;27;20010;-66
2023/03/30 08:53:25;;;;;;;;;;;;;;;-1.03;77.88;101421.88;5143851;27;19975;-66
2023/03/30 08:55:54;;;;;;;;;;;;;;;-0.88;77.54;101422.91;5145388;27;19912;-68
2023/03/30 08:58:19;;;;;;;;;;;;;;;-0.90;75.12;101419.50;5145367;27;20362;-68
2023/03/30 09:00:51;;;;;;;;;;;;;;;-1.06;73.97;101418.56;5128476;27;19918;-67
2023/03/30 09:03:31;;;;;;;;;;;;;;;-0.94;76.72;101418.81;5151390;27;20393;-64
2023/03/30 09:06:02;;;;;;;;;;;;;;;-0.76;76.14;101422.31;5136541;27;19947;-65
2023/03/30 09:08:30;;;;;;;;;;;;;;;-0.91;74.09;101409.97;5136536;27;19915;-65
2023/03/30 09:11:00;;;;;;;;;;;;;;;-0.91;75.47;101414.34;5136242;27;20354;-65
2023/03/30 09:13:33;;;;;;;;;;;;;;;-0.86;75.85;101422.84;5136283;27;20377;-67
2023/03/30 09:16:01;;;;;;;;;;;;;;;-0.96;72.86;101420.66;5136673;27;19912;-71
2023/03/30 09:18:31;;;;;;;;;;;;;;;-0.92;75.48;101418.75;5118049;27;19911;-67
2023/03/30 09:20:58;;;;;;;;;;;;;;;-0.81;75.61;101420.84;5136390;27;19912;-67
2023/03/30 09:23:25;;;;;;;;;;;;;;;-0.72;74.15;101416.03;5133070;27;19915;-68
2023/03/30 09:25:53;;;;;;;;;;;;;;;-0.70;73.37;101408.09;5116636;27;19965;-66
2023/03/30 09:28:37;;;;;;;;;;;;;;;-0.76;70.64;101403.16;5115396;28;20006;-64
2023/03/30 09:31:27;;;;;;;;;;;;;;;-0.65;72.91;101403.47;5115364;28;19962;-66
2023/03/30 09:34:01;;;;;;;;;;;;;;;-0.74;71.96;101409.16;5097408;28;19939;-63
2023/03/30 09:36:52;;;;;;;;;;;;;;;-0.75;71.83;101405.72;5115387;28;19943;-65
2023/03/30 09:39:19;;;;;;;;;;;;;;;-0.64;71.61;101407.78;5111812;28;19957;-66
2023/03/30 09:42:03;;;;;;;;;;;;;;;-0.59;71.48;101408.41;5115556;27;19920;-67
2023/03/30 09:44:36;;;;;;;;;;;;;;;-0.53;72.06;101407.28;5115248;28;19918;-65
2023/03/30 09:47:15;;;;;;;;;;;;;;;-0.49;70.72;101404.44;5115111;28;19918;-68
2023/03/30 09:49:41;;;;;;;;;;;;;;;-0.58;67.11;101390.94;5119634;28;19918;-70
2023/03/30 09:52:17;;;;;;;;;;;;;;;-0.55;71.40;101394.28;5116731;28;19915;-68
2023/03/30 09:54:42;;;;;;;;;;;;;;;-0.32;71.53;101391.31;5115545;28;19915;-67
2023/03/30 09:57:23;;;;;;;;;;;;;;;-0.24;71.03;101384.88;5115024;28;20398;-72
2023/03/30 09:59:48;;;;;;;;;;;;;;;-0.31;69.62;101387.78;5117024;27;19954;-66
2023/03/30 10:02:15;;;;;;;;;;;;;;;-0.32;68.80;101383.47;5143959;27;20385;-68
2023/03/30 10:04:52;;;;;;;;;;;;;;;-0.44;68.74;101391.97;5144476;27;19911;-68
2023/03/30 10:07:21;;;;;;;;;;;;;;;-0.46;67.18;101380.72;5144929;27;19912;-66
2023/03/30 10:09:46;;;;;;;;;;;;;;;-0.39;68.34;101382.09;5143637;27;19917;-66
2023/03/30 10:12:12;;;;;;;;;;;;;;;-0.31;68.82;101382.56;5144360;27;20018;-69
2023/03/30 10:14:37;;;;;;;;;;;;;;;-0.19;69.25;101380.25;5144610;27;19911;-65
2023/03/30 10:17:03;;;;;;;;;;;;;;;-0.19;67.74;101369.78;5146227;27;20277;-66
2023/03/30 10:19:29;;;;;;;;;;;;;;;-0.17;66.08;101371.41;5141438;27;19953;-65
2023/03/30 10:21:56;;;;;;;;;;;;;;;-0.23;65.04;101376.09;5144725;27;19914;-68
2023/03/30 10:24:26;;;;;;;;;;;;;;;-0.24;65.17;101369.19;5146076;27;19911;-65
2023/03/30 10:26:56;;;;;;;;;;;;;;;-0.17;66.41;101373.16;5139445;27;19912;-66
2023/03/30 10:29:22;;;;;;;;;;;;;;;-0.41;59.18;101364.78;5143139;27;20362;-66
2023/03/30 10:31:51;;;;;;;;;;;;;;;-0.54;59.90;101361.13;5144319;27;19915;-65
2023/03/30 10:34:22;;;;;;;;;;;;;;;-0.44;62.08;101368.41;5146559;27;19955;-66
2023/03/30 10:36:51;;;;;;;;;;;;;;;-0.56;59.62;101363.81;5115500;27;19935;-68
2023/03/30 10:39:16;;;;;;;;;;;;;;;-0.45;63.78;101356.25;5129866;27;19942;-64
2023/03/30 10:41:45;;;;;;;;;;;;;;;-0.24;64.74;101359.56;5122275;27;19916;-69
2023/03/30 10:44:22;;;;;;;;;;;;;;;0.01;65.55;101358.28;5094380;28;20218;-65
2023/03/30 10:46:49;;;;;;;;;;;;;;;-0.03;58.03;101354.94;5119863;27;20274;-66
2023/03/30 10:49:33;;;;;;;;;;;;;;;0.01;62.64;101351.28;5132116;27;19911;-66
2023/03/30 10:52:14;;;;;;;;;;;;;;;0.03;62.52;101345.94;5133888;27;19911;-64
2023/03/30 10:54:47;;;;;;;;;;;;;;;0.12;63.87;101341.06;5117784;27;20286;-66
2023/03/30 10:57:13;;;;;;;;;;;;;;;0.20;62.07;101346.72;5113457;28;19934;-68
2023/03/30 10:59:38;;;;;;;;;;;;;;;0.22;63.32;101342.25;5112405;28;20327;-68
2023/03/30 11:02:22;;;;;;;;;;;;;;;0.29;61.38;101348.88;5133140;27;20014;-68
2023/03/30 11:05:11;;;;;;;;;;;;;;;0.28;62.89;101347.16;5134053;27;19915;-67
2023/03/30 11:07:42;;;;;;;;;;;;;;;0.22;60.67;101347.50;5133836;27;19918;-69
2023/03/30 11:10:16;;;;;;;;;;;;;;;0.16;60.93;101332.09;5133706;27;19912;-67
2023/03/30 11:12:45;;;;;;;;;;;;;;;0.23;60.55;101343.94;5133694;27;20244;-68
2023/03/30 11:15:17;;;;;;;;;;;;;;;0.23;60.22;101341.31;5133719;27;19956;-66
2023/03/30 11:17:53;;;;;;;;;;;;;;;0.16;60.41;101336.50;5134093;27;19915;-67
2023/03/30 11:20:27;;;;;;;;;;;;;;;0.10;57.94;101331.59;5133629;27;19911;-71
2023/03/30 11:23:04;;;;;;;;;;;;;;;0.04;59.32;101327.53;5133373;27;20046;-71
2023/03/30 11:25:38;;;;;;;;;;;;;;;0.01;59.32;101326.84;5132652;27;19998;-72
2023/03/30 11:28:14;;;;;;;;;;;;;;;0.07;59.47;101327.38;5133088;27;19925;-70
2023/03/30 11:30:42;;;;;;;;;;;;;;;0.01;58.84;101329.47;5133121;27;19911;-70
2023/03/30 11:33:16;;;;;;;;;;;;;;;-0.06;59.54;101316.69;5115153;27;19937;-71
2023/03/30 11:35:52;;;;;;;;;;;;;;;0.04;59.67;101316.22;5132865;27;20371;-67
2023/03/30 11:38:19;;;;;;;;;;;;;;;0.17;59.33;101312.84;5133201;27;19933;-67
2023/03/30 11:41:12;;;;;;;;;;;;;;;0.16;59.82;101308.53;5132976;27;19922;-73
2023/03/30 11:43:38;;;;;;;;;;;;;;;0.16;57.37;101305.91;5133285;27;19915;-67
2023/03/30 11:46:15;;;;;;;;;;;;;;;0.24;60.82;101298.47;5133183;27;19957;-68
2023/03/30 11:48:47;;;;;;;;;;;;;;;0.16;54.89;101298.06;5133507;27;19956;-66
2023/03/30 11:51:24;;;;;;;;;;;;;;;0.09;55.60;101294.09;5114950;27;20394;-68
2023/03/30 11:53:58;;;;;;;;;;;;;;;0.08;57.56;101286.31;5133332;27;20350;-67
2023/03/30 11:56:26;;;;;;;;;;;;;;;0.21;59.00;101287.31;5133413;27;19926;-68
2023/03/30 11:59:07;;;;;;;;;;;;;;;0.30;56.54;101282.44;5133657;27;19912;-68
2023/03/30 12:01:45;;;;;;;;;;;;;;;0.18;54.83;101272.63;5133454;27;19919;-68
2023/03/30 12:04:11;;;;;;;;;;;;;;;0.24;58.46;101277.53;5133462;27;19937;-66
2023/03/30 12:06:38;;;;;;;;;;;;;;;0.27;58.21;101281.75;5133051;27;19911;-68
2023/03/30 12:09:12;;;;;;;;;;;;;;;0.20;52.94;101276.00;5132737;27;19950;-67
2023/03/30 12:11:40;;;;;;;;;;;;;;;0.26;57.60;101280.91;5137235;27;20370;-69
2023/03/30 12:14:26;;;;;;;;;;;;;;;0.38;55.53;101279.41;5137281;27;20320;-68
2023/03/30 12:16:53;;;;;;;;;;;;;;;0.26;55.79;101274.81;5137347;27;19918;-67
2023/03/30 12:19:29;;;;;;;;;;;;;;;0.22;56.30;101278.53;5137448;27;20069;-68
2023/03/30 12:22:01;;;;;;;;;;;;;;;0.15;54.95;101283.28;5127658;27;19947;-67
2023/03/30 12:24:30;;;;;;;;;;;;;;;0.21;57.12;101277.69;5129854;27;19965;-67
2023/03/30 12:26:55;;;;;;;;;;;;;;;0.26;57.29;101280.91;5123780;27;19919;-68
2023/03/30 12:29:20;;;;;;;;;;;;;;;0.38;56.37;101284.66;5136834;27;19911;-65
2023/03/30 12:31:46;;;;;;;;;;;;;;;0.47;56.88;101278.03;5136972;27;19926;-66
2023/03/30 12:34:11;;;;;;;;;;;;;;;0.51;57.98;101274.31;5137485;27;19915;-69
2023/03/30 12:36:40;;;;;;;;;;;;;;;0.48;56.44;101269.25;5136873;27;19919;-72
2023/03/30 12:39:12;;;;;;;;;;;;;;;0.43;57.23;101271.28;5137147;27;19912;-65
2023/03/30 12:41:42;;;;;;;;;;;;;;;0.27;56.91;101272.13;5136881;27;19980;-64
2023/03/30 12:44:07;;;;;;;;;;;;;;;0.20;57.83;101272.53;5131644;27;20369;-67